sensor_id;sensor_type;location;lat;lon;timestamp;pressure;altitude;pressure_sealevel;temperature;humidity
2184;BME280;1098;48.940;8.962;2022-12-15T00:00:14;97270.03;;;-1.91;100.00
2184;BME280;1098;48.940;8.962;2022-12-15T00:03:05;97252.97;;;-1.89;100.00
2184;BME280;1098;48.940;8.962;2022-12-15T00:05:51;97269.34;;;-1.56;100.00
2184;BME280;1098;48.940;8.962;2022-12-15T00:08:37;97278.00;;;-1.62;100.00
2184;BME280;1098;48.940;8.962;2022-12-15T00:11:24;97268.91;;;-1.97;100.00
2184;BME280;1098;48.940;8.962;2022-12-15T00:14:11;97276.59;;;-1.87;100.00
2184;BME280;1098;48.940;8.962;2022-12-15T00:16:57;97266.91;;;-1.95;100.00
2184;BME280;1098;48.940;8.962;2022-12-15T00:19:44;97284.34;;;-1.86;100.00
2184;BME280;1098;48.940;8.962;2022-12-15T00:22:29;97284.34;;;-1.86;100.00
2184;BME280;1098;48.940;8.962;2022-12-15T00:25:15;97281.97;;;-1.43;100.00
2184;BME280;1098;48.940;8.962;2022-12-15T00:28:01;97280.94;;;-1.57;100.00
2184;BME280;1098;48.940;8.962;2022-12-15T00:30:49;97274.81;;;-1.72;100.00
2184;BME280;1098;48.940;8.962;2022-12-15T00:33:34;97278.78;;;-1.24;100.00
2184;BME280;1098;48.940;8.962;2022-12-15T00:36:21;97289.19;;;-1.52;100.00
2184;BME280;1098;48.940;8.962;2022-12-15T00:39:06;97293.50;;;-1.21;100.00
2184;BME280;1098;48.940;8.962;2022-12-15T00:41:35;97298.31;;;-1.54;100.00
2184;BME280;1098;48.940;8.962;2022-12-15T00:44:03;97303.81;;;-1.79;100.00
2184;BME280;1098;48.940;8.962;2022-12-15T00:46:36;97297.84;;;-1.95;100.00
2184;BME280;1098;48.940;8.962;2022-12-15T00:49:22;97300.13;;;-1.69;100.00
2184;BME280;1098;48.940;8.962;2022-12-15T00:52:09;97313.16;;;-0.86;100.00
2184;BME280;1098;48.940;8.962;2022-12-15T00:54:55;97317.69;;;-1.24;100.00
2184;BME280;1098;48.940;8.962;2022-12-15T00:57:41;97317.50;;;-1.23;100.00
2184;BME280;1098;48.940;8.962;2022-12-15T01:00:27;97319.91;;;-1.65;100.00
2184;BME280;1098;48.940;8.962;2022-12-15T01:03:16;97328.81;;;-1.81;100.00
2184;BME280;1098;48.940;8.962;2022-12-15T01:06:05;97333.06;;;-1.72;100.00
2184;BME280;1098;48.940;8.962;2022-12-15T01:08:51;97329.78;;;-1.97;100.00
2184;BME280;1098;48.940;8.962;2022-12-15T01:11:37;97323.59;;;-1.89;100.00
2184;BME280;1098;48.940;8.962;2022-12-15T01:14:23;97330.34;;;-1.87;100.00
2184;BME280;1098;48.940;8.962;2022-12-15T01:17:10;97330.81;;;-1.83;100.00
2184;BME280;1098;48.940;8.962;2022-12-15T01:19:57;97327.66;;;-1.79;100.00
2184;BME280;1098;48.940;8.962;2022-12-15T01:22:41;97328.25;;;-1.54;100.00
2184;BME280;1098;48.940;8.962;2022-12-15T01:25:09;97338.84;;;-1.54;100.00
2184;BME280;1098;48.940;8.962;2022-12-15T01:27:38;97337.75;;;-1.82;100.00
2184;BME280;1098;48.940;8.962;2022-12-15T01:30:08;97339.94;;;-1.86;100.00
2184;BME280;1098;48.940;8.962;2022-12-15T01:32:39;97339.06;;;-1.78;100.00
2184;BME280;1098;48.940;8.962;2022-12-15T01:35:14;97340.66;;;-1.69;100.00
2184;BME280;1098;48.940;8.962;2022-12-15T01:37:44;97345.63;;;-1.51;100.00
2184;BME280;1098;48.940;8.962;2022-12-15T01:40:18;97352.25;;;-1.93;100.00
2184;BME280;1098;48.940;8.962;2022-12-15T01:43:18;97352.94;;;-1.99;100.00
2184;BME280;1098;48.940;8.962;2022-12-15T01:46:01;97352.59;;;-1.96;100.00
2184;BME280;1098;48.940;8.962;2022-12-15T01:48:36;97360.38;;;-1.94;100.00
2184;BME280;1098;48.940;8.962;2022-12-15T01:51:14;97356.53;;;-1.69;100.00
2184;BME280;1098;48.940;8.962;2022-12-15T01:53:48;97353.13;;;-2.00;100.00
2184;BME280;1098;48.940;8.962;2022-12-15T01:56:20;97354.28;;;-2.03;100.00
2184;BME280;1098;48.940;8.962;2022-12-15T01:58:52;97360.38;;;-1.94;100.00
2184;BME280;1098;48.940;8.962;2022-12-15T02:01:21;97354.22;;;-2.18;100.00
2184;BME280;1098;48.940;8.962;2022-12-15T02:03:50;97353.72;;;-2.13;100.00
2184;BME280;1098;48.940;8.962;2022-12-15T02:06:20;97345.63;;;-2.20;100.00
2184;BME280;1098;48.940;8.962;2022-12-15T02:08:52;97348.00;;;-2.02;100.00
2184;BME280;1098;48.940;8.962;2022-12-15T02:11:53;97352.56;;;-1.88;100.00
2184;BME280;1098;48.940;8.962;2022-12-15T02:14:27;97360.03;;;-1.91;100.00
2184;BME280;1098;48.940;8.962;2022-12-15T02:17:02;97362.34;;;-1.96;100.00
2184;BME280;1098;48.940;8.962;2022-12-15T02:19:41;97357.84;;;-2.11;100.00
2184;BME280;1098;48.940;8.962;2022-12-15T02:22:20;97356.69;;;-0.66;100.00
2184;BME280;1098;48.940;8.962;2022-12-15T02:25:02;97353.94;;;-2.00;100.00
2184;BME280;1098;48.940;8.962;2022-12-15T02:27:42;97361.66;;;-1.90;100.00
2184;BME280;1098;48.940;8.962;2022-12-15T02:30:18;97367.78;;;-1.90;100.00
2184;BME280;1098;48.940;8.962;2022-12-15T02:32:49;97359.09;;;-2.07;100.00
2184;BME280;1098;48.940;8.962;2022-12-15T02:35:20;97369.34;;;-1.81;100.00
2184;BME280;1098;48.940;8.962;2022-12-15T02:37:51;97360.50;;;-1.88;100.00
2184;BME280;1098;48.940;8.962;2022-12-15T02:40:19;97363.84;;;-1.94;100.00
2184;BME280;1098;48.940;8.962;2022-12-15T02:42:50;97368.47;;;-1.50;100.00
2184;BME280;1098;48.940;8.962;2022-12-15T02:45:21;97377.16;;;-1.64;100.00
2184;BME280;1098;48.940;8.962;2022-12-15T02:47:51;97379.66;;;-1.86;100.00
2184;BME280;1098;48.940;8.962;2022-12-15T02:50:29;97381.34;;;-1.47;100.00
2184;BME280;1098;48.940;8.962;2022-12-15T02:53:06;97385.00;;;-1.48;100.00
2184;BME280;1098;48.940;8.962;2022-12-15T02:55:43;97386.97;;;-1.88;100.00
2184;BME280;1098;48.940;8.962;2022-12-15T02:58:18;97379.66;;;-1.63;100.00
2184;BME280;1098;48.940;8.962;2022-12-15T03:00:51;97351.75;;;-2.19;100.00
2184;BME280;1098;48.940;8.962;2022-12-15T03:03:19;97379.09;;;-2.04;100.00
2184;BME280;1098;48.940;8.962;2022-12-15T03:05:49;97380.25;;;-1.76;100.00
2184;BME280;1098;48.940;8.962;2022-12-15T03:08:19;97388.69;;;-2.03;100.00
2184;BME280;1098;48.940;8.962;2022-12-15T03:10:47;97381.16;;;-2.14;100.00
2184;BME280;1098;48.940;8.962;2022-12-15T03:13:16;97393.50;;;-2.07;100.00
2184;BME280;1098;48.940;8.962;2022-12-15T03:15:44;97395.91;;;-1.89;100.00
2184;BME280;1098;48.940;8.962;2022-12-15T03:18:14;97388.78;;;-1.88;100.00
2184;BME280;1098;48.940;8.962;2022-12-15T03:20:42;97386.63;;;-2.16;100.00
2184;BME280;1098;48.940;8.962;2022-12-15T03:23:10;97391.84;;;-2.08;100.00
2184;BME280;1098;48.940;8.962;2022-12-15T03:25:38;97392.31;;;-1.96;100.00
2184;BME280;1098;48.940;8.962;2022-12-15T03:28:06;97400.63;;;-2.07;100.00
2184;BME280;1098;48.940;8.962;2022-12-15T03:30:35;97406.94;;;-1.85;100.00
2184;BME280;1098;48.940;8.962;2022-12-15T03:33:03;97402.03;;;-2.19;100.00
2184;BME280;1098;48.940;8.962;2022-12-15T03:35:35;97402.19;;;-2.21;100.00
2184;BME280;1098;48.940;8.962;2022-12-15T03:38:03;97410.44;;;-2.16;100.00
2184;BME280;1098;48.940;8.962;2022-12-15T03:40:31;97413.25;;;-2.17;100.00
2184;BME280;1098;48.940;8.962;2022-12-15T03:42:59;97414.22;;;-2.10;100.00
2184;BME280;1098;48.940;8.962;2022-12-15T03:45:27;97409.72;;;-2.32;100.00
2184;BME280;1098;48.940;8.962;2022-12-15T03:47:56;97409.75;;;-2.10;100.00
2184;BME280;1098;48.940;8.962;2022-12-15T03:50:24;97412.81;;;-1.98;100.00
2184;BME280;1098;48.940;8.962;2022-12-15T03:52:55;97413.16;;;-2.01;100.00
2184;BME280;1098;48.940;8.962;2022-12-15T03:55:23;97419.75;;;-1.97;100.00
2184;BME280;1098;48.940;8.962;2022-12-15T03:57:52;97414.88;;;-2.08;100.00
2184;BME280;1098;48.940;8.962;2022-12-15T04:00:22;97430.38;;;-2.05;100.00
2184;BME280;1098;48.940;8.962;2022-12-15T04:02:51;97424.50;;;-2.15;100.00
2184;BME280;1098;48.940;8.962;2022-12-15T04:05:23;97430.09;;;-2.10;100.00
2184;BME280;1098;48.940;8.962;2022-12-15T04:07:52;97437.25;;;-1.65;100.00
2184;BME280;1098;48.940;8.962;2022-12-15T04:10:22;97438.03;;;-2.10;100.00
2184;BME280;1098;48.940;8.962;2022-12-15T04:12:59;97431.78;;;-2.17;100.00
2184;BME280;1098;48.940;8.962;2022-12-15T04:15:27;97445.66;;;-1.84;100.00
2184;BME280;1098;48.940;8.962;2022-12-15T04:17:56;97449.06;;;-1.98;100.00
2184;BME280;1098;48.940;8.962;2022-12-15T04:20:24;97456.13;;;-1.91;100.00
2184;BME280;1098;48.940;8.962;2022-12-15T04:22:52;97452.44;;;-1.82;100.00
2184;BME280;1098;48.940;8.962;2022-12-15T04:25:22;97451.66;;;-1.90;100.00
2184;BME280;1098;48.940;8.962;2022-12-15T04:28:08;97454.09;;;-2.12;100.00
2184;BME280;1098;48.940;8.962;2022-12-15T04:30:55;97445.09;;;-2.33;100.00
2184;BME280;1098;48.940;8.962;2022-12-15T04:33:43;97445.63;;;-2.46;100.00
2184;BME280;1098;48.940;8.962;2022-12-15T04:36:29;97445.09;;;-2.33;100.00
2184;BME280;1098;48.940;8.962;2022-12-15T04:39:16;97404.19;;;-2.62;100.00
2184;BME280;1098;48.940;8.962;2022-12-15T04:42:03;97436.66;;;-2.29;100.00
2184;BME280;1098;48.940;8.962;2022-12-15T04:44:50;97433.84;;;-2.35;100.00
2184;BME280;1098;48.940;8.962;2022-12-15T04:47:46;97433.28;;;-2.23;100.00
2184;BME280;1098;48.940;8.962;2022-12-15T04:50:31;97436.22;;;-2.10;100.00
2184;BME280;1098;48.940;8.962;2022-12-15T04:53:17;97439.38;;;-2.14;100.00
2184;BME280;1098;48.940;8.962;2022-12-15T04:56:03;97450.00;;;-1.91;100.00
2184;BME280;1098;48.940;8.962;2022-12-15T04:58:52;97455.03;;;-1.74;100.00
2184;BME280;1098;48.940;8.962;2022-12-15T05:01:38;97455.47;;;-1.93;100.00
2184;BME280;1098;48.940;8.962;2022-12-15T05:04:24;97456.94;;;-2.21;100.00
2184;BME280;1098;48.940;8.962;2022-12-15T05:07:09;97452.22;;;-2.03;100.00
2184;BME280;1098;48.940;8.962;2022-12-15T05:09:55;97450.69;;;-1.97;100.00
2184;BME280;1098;48.940;8.962;2022-12-15T05:12:41;97438.81;;;-2.32;100.00
2184;BME280;1098;48.940;8.962;2022-12-15T05:15:28;97457.09;;;-2.23;100.00
2184;BME280;1098;48.940;8.962;2022-12-15T05:18:14;97463.84;;;-2.12;100.00
2184;BME280;1098;48.940;8.962;2022-12-15T05:21:00;97466.25;;;-2.33;100.00
2184;BME280;1098;48.940;8.962;2022-12-15T05:23:46;97471.50;;;-2.25;100.00
2184;BME280;1098;48.940;8.962;2022-12-15T05:26:31;97472.31;;;-2.17;100.00
2184;BME280;1098;48.940;8.962;2022-12-15T05:29:19;97466.44;;;-1.73;100.00
2184;BME280;1098;48.940;8.962;2022-12-15T05:32:08;97461.72;;;-1.86;100.00
2184;BME280;1098;48.940;8.962;2022-12-15T05:34:36;97447.75;;;-2.02;100.00
2184;BME280;1098;48.940;8.962;2022-12-15T05:37:04;97451.63;;;-2.21;100.00
2184;BME280;1098;48.940;8.962;2022-12-15T05:39:33;97456.16;;;-1.99;100.00
2184;BME280;1098;48.940;8.962;2022-12-15T05:42:01;97458.25;;;-1.63;100.00
2184;BME280;1098;48.940;8.962;2022-12-15T05:44:29;97454.72;;;-1.79;100.00
2184;BME280;1098;48.940;8.962;2022-12-15T05:46:57;97447.66;;;-2.17;100.00
2184;BME280;1098;48.940;8.962;2022-12-15T05:49:27;97453.44;;;-2.14;100.00
2184;BME280;1098;48.940;8.962;2022-12-15T05:51:55;97462.69;;;-2.10;100.00
2184;BME280;1098;48.940;8.962;2022-12-15T05:54:23;97474.88;;;-2.00;100.00
2184;BME280;1098;48.940;8.962;2022-12-15T05:56:54;97468.53;;;-1.00;100.00
2184;BME280;1098;48.940;8.962;2022-12-15T05:59:22;97477.16;;;-1.44;100.00
2184;BME280;1098;48.940;8.962;2022-12-15T06:01:50;97477.81;;;-1.64;100.00
2184;BME280;1098;48.940;8.962;2022-12-15T06:04:18;97467.34;;;-1.58;100.00
2184;BME280;1098;48.940;8.962;2022-12-15T06:06:47;97475.78;;;-1.85;100.00
2184;BME280;1098;48.940;8.962;2022-12-15T06:09:15;97480.00;;;-2.07;100.00
2184;BME280;1098;48.940;8.962;2022-12-15T06:11:43;97476.63;;;-1.62;100.00
2184;BME280;1098;48.940;8.962;2022-12-15T06:14:12;97475.94;;;-1.33;100.00
2184;BME280;1098;48.940;8.962;2022-12-15T06:16:43;97474.41;;;-1.50;100.00
2184;BME280;1098;48.940;8.962;2022-12-15T06:19:17;97470.91;;;-2.04;100.00
2184;BME280;1098;48.940;8.962;2022-12-15T06:21:48;97484.06;;;-1.57;100.00
2184;BME280;1098;48.940;8.962;2022-12-15T06:24:16;97478.00;;;-1.97;100.00
2184;BME280;1098;48.940;8.962;2022-12-15T06:26:45;97481.13;;;-1.93;100.00
2184;BME280;1098;48.940;8.962;2022-12-15T06:29:18;97485.97;;;-2.05;100.00
2184;BME280;1098;48.940;8.962;2022-12-15T06:31:46;97487.63;;;-2.04;100.00
2184;BME280;1098;48.940;8.962;2022-12-15T06:34:15;97493.72;;;-1.42;100.00
2184;BME280;1098;48.940;8.962;2022-12-15T06:36:44;97493.97;;;-1.51;100.00
2184;BME280;1098;48.940;8.962;2022-12-15T06:39:14;97498.81;;;-1.94;100.00
2184;BME280;1098;48.940;8.962;2022-12-15T06:41:43;97493.78;;;-1.81;100.00
2184;BME280;1098;48.940;8.962;2022-12-15T06:44:12;97493.63;;;-1.48;100.00
2184;BME280;1098;48.940;8.962;2022-12-15T06:46:41;97493.09;;;-1.75;100.00
2184;BME280;1098;48.940;8.962;2022-12-15T06:49:14;97492.75;;;-1.71;100.00
2184;BME280;1098;48.940;8.962;2022-12-15T06:51:43;97487.50;;;-2.11;100.00
2184;BME280;1098;48.940;8.962;2022-12-15T06:54:15;97481.66;;;-2.06;100.00
2184;BME280;1098;48.940;8.962;2022-12-15T06:56:43;97443.53;;;-2.20;100.00
2184;BME280;1098;48.940;8.962;2022-12-15T06:59:16;97487.13;;;-2.08;100.00
2184;BME280;1098;48.940;8.962;2022-12-15T07:01:44;97490.41;;;-1.66;100.00
2184;BME280;1098;48.940;8.962;2022-12-15T07:04:13;97492.78;;;-1.80;100.00
2184;BME280;1098;48.940;8.962;2022-12-15T07:06:42;97491.97;;;-2.11;100.00
2184;BME280;1098;48.940;8.962;2022-12-15T07:09:14;97453.38;;;-2.36;100.00
2184;BME280;1098;48.940;8.962;2022-12-15T07:11:44;97475.94;;;-2.18;100.00
2184;BME280;1098;48.940;8.962;2022-12-15T07:14:15;97482.13;;;-2.33;100.00
2184;BME280;1098;48.940;8.962;2022-12-15T07:16:43;97491.38;;;-2.29;100.00
2184;BME280;1098;48.940;8.962;2022-12-15T07:19:12;97491.38;;;-2.37;100.00
2184;BME280;1098;48.940;8.962;2022-12-15T07:21:41;97499.59;;;-2.16;100.00
2184;BME280;1098;48.940;8.962;2022-12-15T07:24:10;97503.81;;;-1.99;100.00
2184;BME280;1098;48.940;8.962;2022-12-15T07:26:40;97508.84;;;-2.20;100.00
2184;BME280;1098;48.940;8.962;2022-12-15T07:29:09;97503.53;;;-2.12;100.00
2184;BME280;1098;48.940;8.962;2022-12-15T07:31:42;97505.94;;;-1.94;100.00
2184;BME280;1098;48.940;8.962;2022-12-15T07:34:12;97510.81;;;-2.14;100.00
2184;BME280;1098;48.940;8.962;2022-12-15T07:36:40;97511.66;;;-2.14;100.00
2184;BME280;1098;48.940;8.962;2022-12-15T07:39:15;97510.16;;;-2.08;100.00
2184;BME280;1098;48.940;8.962;2022-12-15T07:41:45;97512.84;;;-1.85;100.00
2184;BME280;1098;48.940;8.962;2022-12-15T07:44:15;97515.38;;;-2.00;100.00
2184;BME280;1098;48.940;8.962;2022-12-15T07:46:43;97516.53;;;-1.94;100.00
2184;BME280;1098;48.940;8.962;2022-12-15T07:49:15;97517.03;;;-1.91;100.00
2184;BME280;1098;48.940;8.962;2022-12-15T07:51:43;97506.25;;;-1.89;100.00
2184;BME280;1098;48.940;8.962;2022-12-15T07:54:12;97499.84;;;-2.03;100.00
2184;BME280;1098;48.940;8.962;2022-12-15T07:56:44;97495.06;;;-2.08;100.00
2184;BME280;1098;48.940;8.962;2022-12-15T07:59:16;97516.28;;;-1.77;100.00
2184;BME280;1098;48.940;8.962;2022-12-15T08:01:44;97513.31;;;-1.82;100.00
2184;BME280;1098;48.940;8.962;2022-12-15T08:04:13;97520.84;;;-1.93;100.00
2184;BME280;1098;48.940;8.962;2022-12-15T08:06:41;97528.94;;;-1.64;100.00
2184;BME280;1098;48.940;8.962;2022-12-15T08:09:09;97539.28;;;-1.77;100.00
2184;BME280;1098;48.940;8.962;2022-12-15T08:11:37;97552.44;;;-1.61;100.00
2184;BME280;1098;48.940;8.962;2022-12-15T08:14:09;97553.72;;;-1.49;100.00
2184;BME280;1098;48.940;8.962;2022-12-15T08:16:43;97552.50;;;-1.69;100.00
2184;BME280;1098;48.940;8.962;2022-12-15T08:19:12;97556.88;;;-1.53;100.00
2184;BME280;1098;48.940;8.962;2022-12-15T08:21:41;97564.28;;;-1.80;100.00
2184;BME280;1098;48.940;8.962;2022-12-15T08:24:10;97562.72;;;-1.66;100.00
2184;BME280;1098;48.940;8.962;2022-12-15T08:26:38;97572.19;;;-1.71;100.00
2184;BME280;1098;48.940;8.962;2022-12-15T08:29:07;97570.56;;;-1.81;100.00
2184;BME280;1098;48.940;8.962;2022-12-15T08:31:58;97561.69;;;-1.88;100.00
2184;BME280;1098;48.940;8.962;2022-12-15T08:34:27;97561.63;;;-1.80;100.00
2184;BME280;1098;48.940;8.962;2022-12-15T08:36:55;97547.38;;;-1.70;100.00
2184;BME280;1098;48.940;8.962;2022-12-15T08:39:23;97560.91;;;-1.65;100.00
2184;BME280;1098;48.940;8.962;2022-12-15T08:41:51;97574.09;;;-1.49;100.00
2184;BME280;1098;48.940;8.962;2022-12-15T08:44:20;97565.84;;;-1.62;100.00
2184;BME280;1098;48.940;8.962;2022-12-15T08:46:48;97568.66;;;-1.64;100.00
2184;BME280;1098;48.940;8.962;2022-12-15T08:49:18;97582.91;;;-1.65;100.00
2184;BME280;1098;48.940;8.962;2022-12-15T08:51:48;97580.03;;;-1.47;100.00
2184;BME280;1098;48.940;8.962;2022-12-15T08:54:17;97574.09;;;-1.49;100.00
2184;BME280;1098;48.940;8.962;2022-12-15T08:56:46;97577.72;;;-1.50;100.00
2184;BME280;1098;48.940;8.962;2022-12-15T08:59:14;97586.25;;;-1.40;100.00
2184;BME280;1098;48.940;8.962;2022-12-15T09:01:42;97576.13;;;-1.28;100.00
2184;BME280;1098;48.940;8.962;2022-12-15T09:04:11;97579.97;;;-1.39;100.00
2184;BME280;1098;48.940;8.962;2022-12-15T09:06:40;97569.28;;;-1.54;100.00
2184;BME280;1098;48.940;8.962;2022-12-15T09:09:09;97565.69;;;-1.61;100.00
2184;BME280;1098;48.940;8.962;2022-12-15T09:11:38;97568.44;;;-1.46;100.00
2184;BME280;1098;48.940;8.962;2022-12-15T09:14:06;97563.06;;;-1.07;100.00
2184;BME280;1098;48.940;8.962;2022-12-15T09:16:34;97562.06;;;-1.37;100.00
2184;BME280;1098;48.940;8.962;2022-12-15T09:19:05;97558.59;;;-1.38;100.00
2184;BME280;1098;48.940;8.962;2022-12-15T09:21:34;97560.97;;;-1.20;100.00
2184;BME280;1098;48.940;8.962;2022-12-15T09:24:04;97566.97;;;-1.03;100.00
2184;BME280;1098;48.940;8.962;2022-12-15T09:26:33;97567.22;;;-0.90;100.00
2184;BME280;1098;48.940;8.962;2022-12-15T09:29:01;97571.28;;;-1.02;100.00
2184;BME280;1098;48.940;8.962;2022-12-15T09:31:30;97568.38;;;-1.38;100.00
2184;BME280;1098;48.940;8.962;2022-12-15T09:33:59;97565.69;;;-1.30;100.00
2184;BME280;1098;48.940;8.962;2022-12-15T09:36:27;97575.56;;;-1.24;100.00
2184;BME280;1098;48.940;8.962;2022-12-15T09:38:56;97567.09;;;-0.96;100.00
2184;BME280;1098;48.940;8.962;2022-12-15T09:41:27;97537.09;;;-1.43;100.00
2184;BME280;1098;48.940;8.962;2022-12-15T09:43:57;97559.44;;;-1.14;100.00
2184;BME280;1098;48.940;8.962;2022-12-15T09:46:28;97567.06;;;-1.42;100.00
2184;BME280;1098;48.940;8.962;2022-12-15T09:49:00;97562.63;;;-1.19;100.00
2184;BME280;1098;48.940;8.962;2022-12-15T09:51:32;97568.75;;;-0.95;100.00
2184;BME280;1098;48.940;8.962;2022-12-15T09:54:01;97560.44;;;-1.15;100.00
2184;BME280;1098;48.940;8.962;2022-12-15T09:56:37;97554.47;;;-1.09;100.00
2184;BME280;1098;48.940;8.962;2022-12-15T09:59:11;97560.69;;;-1.02;100.00
2184;BME280;1098;48.940;8.962;2022-12-15T10:01:42;97558.66;;;-0.77;100.00
2184;BME280;1098;48.940;8.962;2022-12-15T10:04:14;97559.81;;;-0.57;100.00
2184;BME280;1098;48.940;8.962;2022-12-15T10:06:48;97543.59;;;-0.77;100.00
2184;BME280;1098;48.940;8.962;2022-12-15T10:09:20;97546.56;;;-0.57;100.00
2184;BME280;1098;48.940;8.962;2022-12-15T10:11:50;97535.09;;;-0.72;100.00
2184;BME280;1098;48.940;8.962;2022-12-15T10:14:24;97529.88;;;-1.03;100.00
2184;BME280;1098;48.940;8.962;2022-12-15T10:16:59;97543.38;;;-0.52;100.00
2184;BME280;1098;48.940;8.962;2022-12-15T10:19:32;97547.56;;;-0.58;100.00
2184;BME280;1098;48.940;8.962;2022-12-15T10:22:09;97556.66;;;-0.75;100.00
2184;BME280;1098;48.940;8.962;2022-12-15T10:24:37;97556.69;;;-0.23;100.00
2184;BME280;1098;48.940;8.962;2022-12-15T10:27:31;97563.28;;;-0.56;100.00
2184;BME280;1098;48.940;8.962;2022-12-15T10:30:03;97561.72;;;-0.13;100.00
2184;BME280;1098;48.940;8.962;2022-12-15T10:32:37;97567.25;;;-0.52;100.00
2184;BME280;1098;48.940;8.962;2022-12-15T10:35:12;97551.38;;;-0.23;100.00
2184;BME280;1098;48.940;8.962;2022-12-15T10:37:41;97540.03;;;-0.02;100.00
2184;BME280;1098;48.940;8.962;2022-12-15T10:40:13;97522.50;;;-0.41;100.00
2184;BME280;1098;48.940;8.962;2022-12-15T10:42:46;97521.13;;;-0.51;100.00
2184;BME280;1098;48.940;8.962;2022-12-15T10:45:27;97505.50;;;-0.17;100.00
2184;BME280;1098;48.940;8.962;2022-12-15T10:47:57;97496.34;;;-0.14;100.00
2184;BME280;1098;48.940;8.962;2022-12-15T10:50:28;97495.63;;;-0.38;100.00
2184;BME280;1098;48.940;8.962;2022-12-15T10:52:56;97477.88;;;-0.37;100.00
2184;BME280;1098;48.940;8.962;2022-12-15T10:55:30;97473.47;;;-0.59;100.00
2184;BME280;1098;48.940;8.962;2022-12-15T10:58:01;97480.97;;;-0.48;100.00
2184;BME280;1098;48.940;8.962;2022-12-15T11:00:29;97479.94;;;-0.77;100.00
2184;BME280;1098;48.940;8.962;2022-12-15T11:02:59;97482.06;;;-0.57;100.00
2184;BME280;1098;48.940;8.962;2022-12-15T11:05:28;97472.31;;;-0.42;100.00
2184;BME280;1098;48.940;8.962;2022-12-15T11:08:14;97472.47;;;-0.14;100.00
2184;BME280;1098;48.940;8.962;2022-12-15T11:10:48;97473.03;;;-0.33;100.00
2184;BME280;1098;48.940;8.962;2022-12-15T11:13:36;97480.44;;;-0.44;100.00
2184;BME280;1098;48.940;8.962;2022-12-15T11:16:14;97473.31;;;-0.43;100.00
2184;BME280;1098;48.940;8.962;2022-12-15T11:18:45;97494.44;;;-0.50;100.00
2184;BME280;1098;48.940;8.962;2022-12-15T11:21:17;97488.31;;;-0.36;100.00
2184;BME280;1098;48.940;8.962;2022-12-15T11:23:53;97492.06;;;-0.01;100.00
2184;BME280;1098;48.940;8.962;2022-12-15T11:29:09;97475.47;;;-0.17;100.00
2184;BME280;1098;48.940;8.962;2022-12-15T11:31:41;97485.66;;;-0.06;100.00
2184;BME280;1098;48.940;8.962;2022-12-15T11:34:11;97484.88;;;0.15;100.00
2184;BME280;1098;48.940;8.962;2022-12-15T11:39:35;97484.00;;;0.86;100.00
2184;BME280;1098;48.940;8.962;2022-12-15T11:42:10;97484.88;;;0.15;100.00
2184;BME280;1098;48.940;8.962;2022-12-15T11:44:49;97483.44;;;-0.17;100.00
2184;BME280;1098;48.940;8.962;2022-12-15T11:47:24;97483.63;;;-0.48;100.00
2184;BME280;1098;48.940;8.962;2022-12-15T11:50:04;97473.75;;;-0.25;100.00
2184;BME280;1098;48.940;8.962;2022-12-15T11:52:39;97455.72;;;-0.15;100.00
2184;BME280;1098;48.940;8.962;2022-12-15T11:55:12;97439.72;;;-0.51;100.00
2184;BME280;1098;48.940;8.962;2022-12-15T12:00:48;97420.50;;;-0.53;100.00
2184;BME280;1098;48.940;8.962;2022-12-15T12:03:25;97417.31;;;-0.48;100.00
2184;BME280;1098;48.940;8.962;2022-12-15T12:06:09;97412.34;;;-0.37;100.00
2184;BME280;1098;48.940;8.962;2022-12-15T12:08:45;97409.41;;;-0.27;100.00
2184;BME280;1098;48.940;8.962;2022-12-15T12:11:17;97410.81;;;-0.46;100.00
2184;BME280;1098;48.940;8.962;2022-12-15T12:13:53;97409.06;;;-0.53;100.00
2184;BME280;1098;48.940;8.962;2022-12-15T12:16:30;97395.97;;;-0.55;100.00
2184;BME280;1098;48.940;8.962;2022-12-15T12:19:03;97387.13;;;-0.47;100.00
2184;BME280;1098;48.940;8.962;2022-12-15T12:21:33;97378.22;;;-0.40;100.00
2184;BME280;1098;48.940;8.962;2022-12-15T12:24:05;97382.25;;;-0.58;100.00
2184;BME280;1098;48.940;8.962;2022-12-15T12:26:39;97385.38;;;-0.55;100.00
2184;BME280;1098;48.940;8.962;2022-12-15T12:29:10;97389.75;;;-0.62;100.00
2184;BME280;1098;48.940;8.962;2022-12-15T12:31:45;97387.63;;;-0.37;100.00
2184;BME280;1098;48.940;8.962;2022-12-15T12:34:18;97378.31;;;0.03;100.00
2184;BME280;1098;48.940;8.962;2022-12-15T12:36:49;97383.13;;;-0.07;100.00
2184;BME280;1098;48.940;8.962;2022-12-15T12:39:19;97386.19;;;-0.25;100.00
2184;BME280;1098;48.940;8.962;2022-12-15T12:41:49;97389.34;;;-0.15;100.00
2184;BME280;1098;48.940;8.962;2022-12-15T12:44:22;97393.25;;;-0.47;100.00
2184;BME280;1098;48.940;8.962;2022-12-15T12:46:55;97383.88;;;-0.28;100.00
2184;BME280;1098;48.940;8.962;2022-12-15T12:49:25;97375.16;;;0.14;100.00
2184;BME280;1098;48.940;8.962;2022-12-15T12:51:58;97374.50;;;-0.09;100.00
2184;BME280;1098;48.940;8.962;2022-12-15T12:54:40;97381.56;;;-0.16;100.00
2184;BME280;1098;48.940;8.962;2022-12-15T13:00:14;97374.59;;;-0.03;100.00
2184;BME280;1098;48.940;8.962;2022-12-15T13:02:52;97365.31;;;-0.28;100.00
2184;BME280;1098;48.940;8.962;2022-12-15T13:05:21;97358.75;;;-0.11;100.00
2184;BME280;1098;48.940;8.962;2022-12-15T13:07:52;97350.38;;;0.07;100.00
2184;BME280;1098;48.940;8.962;2022-12-15T13:10:21;97362.16;;;-0.17;100.00
2184;BME280;1098;48.940;8.962;2022-12-15T13:12:53;97349.94;;;0.25;100.00
2184;BME280;1098;48.940;8.962;2022-12-15T13:15:34;97348.03;;;-0.03;100.00
2184;BME280;1098;48.940;8.962;2022-12-15T13:18:06;97336.81;;;0.02;100.00
2184;BME280;1098;48.940;8.962;2022-12-15T13:20:38;97333.41;;;-0.13;100.00
2184;BME280;1098;48.940;8.962;2022-12-15T13:23:32;97330.13;;;0.06;100.00
2184;BME280;1098;48.940;8.962;2022-12-15T13:26:10;97322.22;;;-0.09;100.00
2184;BME280;1098;48.940;8.962;2022-12-15T13:28:40;97323.06;;;-0.08;100.00
2184;BME280;1098;48.940;8.962;2022-12-15T13:31:23;97316.84;;;-0.15;100.00
2184;BME280;1098;48.940;8.962;2022-12-15T13:34:05;97305.47;;;-0.09;100.00
2184;BME280;1098;48.940;8.962;2022-12-15T13:36:47;97306.38;;;-0.23;100.00
2184;BME280;1098;48.940;8.962;2022-12-15T13:39:33;97309.13;;;-0.31;100.00
2184;BME280;1098;48.940;8.962;2022-12-15T13:42:23;97294.22;;;-0.11;100.00
2184;BME280;1098;48.940;8.962;2022-12-15T13:48:12;97290.31;;;-0.15;100.00
2184;BME280;1098;48.940;8.962;2022-12-15T13:50:46;97298.44;;;-0.17;100.00
2184;BME280;1098;48.940;8.962;2022-12-15T13:53:18;97308.84;;;-0.37;100.00
2184;BME280;1098;48.940;8.962;2022-12-15T13:56:03;97296.88;;;-0.11;100.00
2184;BME280;1098;48.940;8.962;2022-12-15T13:58:36;97297.94;;;-0.27;100.00
2184;BME280;1098;48.940;8.962;2022-12-15T14:01:16;97302.16;;;-0.32;100.00
2184;BME280;1098;48.940;8.962;2022-12-15T14:03:55;97300.41;;;-0.25;100.00